Time;durP1;ratioP1;P1;durP2;ratioP2;P2;SDS_P1;SDS_P2;PMS_P1;PMS_P2;Temp;Humidity;BMP_temperature;BMP_pressure;BME280_temperature;BME280_humidity;BME280_pressure;Samples;Min_cycle;Max_cycle;Signal;HPM_P1;HPM_P2
2022/05/03 00:02:16;;;;;;;27.67;24.67;;;9.20;99.90;;;;;;5114769;28;20566;-77
2022/05/03 00:04:52;;;;;;;28.23;24.20;;;9.10;99.90;;;;;;5114790;28;20264;-77
2022/05/03 00:07:25;;;;;;;29.13;25.43;;;9.00;99.90;;;;;;5114912;28;20195;-77
2022/05/03 00:10:02;;;;;;;25.53;22.93;;;8.90;99.90;;;;;;5114765;28;20563;-77
2022/05/03 00:12:34;;;;;;;28.73;25.40;;;9.00;99.90;;;;;;5114791;28;20229;-77
2022/05/03 00:15:03;;;;;;;32.17;24.57;;;9.00;99.90;;;;;;5114651;28;20280;-77
2022/05/03 00:17:31;;;;;;;31.63;26.30;;;8.90;99.90;;;;;;5114412;28;20223;-77
2022/05/03 00:19:59;;;;;;;30.37;25.70;;;8.80;99.90;;;;;;5114729;28;20191;-77
2022/05/03 00:22:25;;;;;;;28.83;25.83;;;8.80;99.90;;;;;;5114515;28;20249;-77
2022/05/03 00:24:55;;;;;;;29.13;26.13;;;8.90;99.90;;;;;;5114449;28;20192;-77
2022/05/03 00:27:25;;;;;;;31.50;27.57;;;8.70;99.90;;;;;;5114368;28;20195;-77
2022/05/03 00:29:52;;;;;;;31.43;26.77;;;8.50;99.90;;;;;;5114227;28;20198;-77
2022/05/03 00:32:21;;;;;;;32.47;26.47;;;8.60;99.90;;;;;;5114454;28;20231;-77
2022/05/03 00:34:48;;;;;;;29.27;25.50;;;8.60;99.90;;;;;;5114324;28;20192;-77
2022/05/03 00:37:15;;;;;;;33.10;27.47;;;8.50;99.90;;;;;;5114036;28;20590;-77
2022/05/03 00:39:42;;;;;;;30.83;27.33;;;8.50;99.90;;;;;;5114239;28;20195;-77
2022/05/03 00:42:16;;;;;;;32.97;27.13;;;8.50;99.90;;;;;;5113911;28;20666;-77
2022/05/03 00:44:59;;;;;;;37.13;28.63;;;8.50;99.90;;;;;;5114242;28;20198;-76
2022/05/03 00:47:32;;;;;;;33.57;28.73;;;8.40;99.90;;;;;;5114144;28;20201;-76
2022/05/03 00:50:06;;;;;;;33.37;27.23;;;8.40;99.90;;;;;;5113929;28;20670;-77
2022/05/03 00:52:38;;;;;;;35.87;28.57;;;8.50;99.90;;;;;;5113906;28;20192;-77
2022/05/03 00:55:27;;;;;;;33.70;28.43;;;8.30;99.90;;;;;;5114118;28;20196;-77
2022/05/03 00:58:08;;;;;;;34.50;27.73;;;8.40;99.90;;;;;;5113870;28;20224;-76
2022/05/03 01:00:38;;;;;;;32.93;28.63;;;8.30;99.90;;;;;;5113991;28;20373;-77
2022/05/03 01:03:15;;;;;;;31.40;27.50;;;8.30;99.90;;;;;;5113664;28;20206;-76
2022/05/03 01:05:49;;;;;;;29.57;25.20;;;8.30;99.90;;;;;;5113929;28;20200;-76
2022/05/03 01:08:29;;;;;;;31.83;25.87;;;8.20;99.90;;;;;;5113510;28;20630;-77
2022/05/03 01:11:07;;;;;;;31.63;24.80;;;8.20;99.90;;;;;;5113727;28;20199;-76
2022/05/03 01:13:42;;;;;;;27.73;22.93;;;8.20;99.90;;;;;;5113469;28;20199;-76
2022/05/03 01:16:26;;;;;;;28.27;23.33;;;8.10;99.90;;;;;;5113636;28;20199;-76
2022/05/03 01:18:57;;;;;;;26.50;23.00;;;8.20;99.90;;;;;;5113656;28;20195;-76
2022/05/03 01:21:45;;;;;;;30.77;23.60;;;8.20;99.90;;;;;;5113556;28;20196;-77
2022/05/03 01:24:32;;;;;;;26.53;22.80;;;8.10;99.90;;;;;;5113472;28;20694;-77
2022/05/03 01:27:17;;;;;;;26.57;22.70;;;8.10;99.90;;;;;;5113540;28;20205;-77
2022/05/03 01:29:46;;;;;;;27.33;22.83;;;8.10;99.90;;;;;;5113408;28;20245;-76
2022/05/03 01:32:16;;;;;;;32.57;24.50;;;8.00;99.90;;;;;;5113262;28;20200;-77
2022/05/03 01:34:47;;;;;;;28.70;23.37;;;7.90;99.90;;;;;;5113468;28;20196;-77
2022/05/03 01:37:38;;;;;;;30.63;23.97;;;7.90;99.90;;;;;;5113175;28;20239;-77
2022/05/03 01:40:06;;;;;;;34.20;24.80;;;7.80;99.90;;;;;;5113327;28;20199;-77
2022/05/03 01:43:07;;;;;;;29.37;24.93;;;7.80;99.90;;;;;;5113055;28;20704;-77
2022/05/03 01:45:40;;;;;;;34.30;25.43;;;7.90;99.90;;;;;;5061187;28;20219;-77
2022/05/03 01:48:18;;;;;;;33.47;24.73;;;7.90;99.90;;;;;;5120078;28;20199;-77
2022/05/03 01:50:49;;;;;;;31.60;25.53;;;7.80;99.90;;;;;;5120104;28;20309;-76
2022/05/03 01:53:21;;;;;;;32.33;26.73;;;7.70;99.90;;;;;;5120154;28;20195;-77
2022/05/03 01:56:05;;;;;;;35.53;27.27;;;7.80;99.90;;;;;;5120146;28;20248;-76
2022/05/03 01:58:41;;;;;;;38.17;27.30;;;7.70;99.90;;;;;;5119889;28;20230;-77
2022/05/03 02:01:19;;;;;;;37.07;26.47;;;7.60;99.90;;;;;;5120022;28;20251;-77
2022/05/03 02:03:49;;;;;;;34.47;26.37;;;7.50;99.90;;;;;;5120137;28;20195;-76
2022/05/03 02:06:22;;;;;;;40.83;29.27;;;7.40;99.90;;;;;;5120170;28;20195;-76
2022/05/03 02:08:57;;;;;;;43.03;30.00;;;7.30;99.90;;;;;;5119672;28;20724;-77
2022/05/03 02:11:45;;;;;;;55.10;30.37;;;7.40;99.90;;;;;;5119734;28;20192;-76
2022/05/03 02:17:06;;;;;;;117.00;29.40;;;7.40;99.90;;;;;;5119767;28;20609;-77
2022/05/03 02:19:48;;;;;;;89.60;28.67;;;7.40;99.90;;;;;;5119767;28;20196;-76
2022/05/03 02:22:43;;;;;;;78.20;27.33;;;7.50;99.90;;;;;;5119698;28;20252;-76
2022/05/03 02:25:13;;;;;;;92.73;28.07;;;7.40;99.90;;;;;;5102527;28;20214;-76
2022/05/03 02:27:47;;;;;;;58.60;28.00;;;7.40;99.90;;;;;;5119743;28;20201;-76
2022/05/03 02:30:15;;;;;;;79.97;29.63;;;7.30;99.90;;;;;;5119667;28;20196;-76
2022/05/03 02:32:55;;;;;;;92.03;28.70;;;7.20;99.90;;;;;;5119483;28;20667;-76
2022/05/03 02:35:24;;;;;;;54.67;27.77;;;7.40;99.90;;;;;;5119760;28;20202;-77
2022/05/03 02:37:56;;;;;;;130.97;30.87;;;7.30;99.90;;;;;;5119320;28;20294;-77
2022/05/03 02:40:27;;;;;;;151.60;30.50;;;7.30;99.90;;;;;;5119504;28;20663;-77
2022/05/03 02:42:55;;;;;;;66.80;28.67;;;7.30;99.90;;;;;;5119552;28;20234;-76
2022/05/03 02:45:22;;;;;;;148.67;29.43;;;7.30;99.90;;;;;;5119530;28;20195;-77
2022/05/03 02:48:00;;;;;;;146.67;29.40;;;7.20;99.90;;;;;;5119518;28;20204;-77
2022/05/03 02:50:30;;;;;;;77.37;28.33;;;7.00;99.90;;;;;;5119561;28;20596;-77
2022/05/03 02:53:02;;;;;;;175.37;32.93;;;7.00;99.90;;;;;;5119498;28;20200;-76
2022/05/03 02:55:41;;;;;;;82.83;29.87;;;7.00;99.90;;;;;;5119390;28;20248;-76
2022/05/03 02:58:19;;;;;;;86.73;31.20;;;7.00;99.90;;;;;;5115511;28;20223;-76
2022/05/03 03:04:02;;;;;;;49.43;26.80;;;7.00;99.90;;;;;;5116175;28;20654;-77
2022/05/03 03:06:33;;;;;;;154.60;34.90;;;7.10;99.90;;;;;;5116295;28;20225;-75
2022/05/03 03:09:01;;;;;;;54.90;27.97;;;7.00;99.90;;;;;;5116025;28;20204;-75
2022/05/03 03:11:36;;;;;;;129.80;31.83;;;7.00;99.90;;;;;;5115997;28;20196;-75
2022/05/03 03:14:09;;;;;;;101.77;30.97;;;7.00;99.90;;;;;;5115860;28;20200;-76
2022/05/03 03:16:44;;;;;;;59.77;29.23;;;6.90;99.90;;;;;;5115815;28;20203;-75
2022/05/03 03:19:43;;;;;;;122.87;32.73;;;6.80;99.90;;;;;;5115918;28;20203;-75
2022/05/03 03:22:14;;;;;;;64.47;28.50;;;6.80;99.90;;;;;;5094398;28;20712;-75
2022/05/03 03:24:41;;;;;;;85.50;32.57;;;6.80;99.90;;;;;;5115519;28;20654;-75
2022/05/03 03:27:11;;;;;;;181.77;36.50;;;6.80;99.90;;;;;;5115617;28;20652;-75
2022/05/03 03:29:39;;;;;;;73.53;31.77;;;6.90;99.90;;;;;;5115690;28;20200;-75
2022/05/03 03:32:07;;;;;;;50.67;31.23;;;7.00;99.90;;;;;;5115596;28;20241;-75
2022/05/03 03:34:36;;;;;;;63.20;31.57;;;7.00;99.90;;;;;;5115388;28;20199;-75
2022/05/03 03:37:06;;;;;;;46.30;30.70;;;7.00;99.90;;;;;;5115158;28;20195;-75
2022/05/03 03:39:33;;;;;;;57.70;30.57;;;7.00;99.90;;;;;;5115604;28;20223;-75
2022/05/03 03:42:02;;;;;;;53.93;31.87;;;7.00;99.90;;;;;;5115426;28;20199;-74
2022/05/03 03:44:30;;;;;;;44.40;30.73;;;7.00;99.90;;;;;;5115251;28;20245;-75
2022/05/03 03:46:57;;;;;;;45.53;30.67;;;7.10;99.90;;;;;;5115310;28;20192;-75
2022/05/03 03:49:24;;;;;;;39.57;28.63;;;7.00;99.90;;;;;;5115203;28;20199;-75
2022/05/03 03:51:53;;;;;;;37.77;27.93;;;6.90;99.90;;;;;;5114953;28;20240;-75
2022/05/03 03:54:20;;;;;;;32.73;26.47;;;6.90;99.90;;;;;;5115216;28;20199;-75
2022/05/03 03:56:48;;;;;;;34.50;25.60;;;7.00;99.90;;;;;;5115255;28;20207;-75
2022/05/03 03:59:15;;;;;;;39.10;28.27;;;7.00;99.90;;;;;;5114864;28;20230;-75
2022/05/03 04:01:43;;;;;;;37.80;29.13;;;7.10;99.90;;;;;;5114921;28;20222;-75
2022/05/03 04:04:11;;;;;;;39.77;28.27;;;7.00;99.90;;;;;;5114565;28;20678;-75
2022/05/03 04:06:38;;;;;;;37.63;28.20;;;7.00;99.90;;;;;;5115177;28;20192;-75
2022/05/03 04:09:06;;;;;;;36.87;27.07;;;7.00;99.90;;;;;;5114544;28;20202;-75
2022/05/03 04:11:42;;;;;;;36.20;26.03;;;6.80;99.90;;;;;;5114879;28;20252;-75
2022/05/03 04:14:09;;;;;;;34.97;25.90;;;6.80;99.90;;;;;;5114653;28;20655;-75
2022/05/03 04:16:36;;;;;;;40.17;27.70;;;6.80;99.90;;;;;;5114630;28;20647;-75
2022/05/03 04:19:02;;;;;;;47.67;27.10;;;6.70;99.90;;;;;;5114330;28;20227;-75
2022/05/03 04:21:29;;;;;;;34.83;25.83;;;6.70;99.90;;;;;;5114416;28;20723;-75
2022/05/03 04:23:55;;;;;;;39.07;28.67;;;6.70;99.90;;;;;;5114527;28;20192;-75
2022/05/03 04:26:23;;;;;;;42.77;25.77;;;6.60;99.90;;;;;;5114439;28;20243;-75
2022/05/03 04:28:50;;;;;;;34.83;25.90;;;6.60;99.90;;;;;;5120340;27;20252;-75
2022/05/03 04:31:17;;;;;;;33.03;24.80;;;6.60;99.90;;;;;;5114117;27;20249;-76
2022/05/03 04:33:43;;;;;;;30.83;25.60;;;6.70;99.90;;;;;;5134635;27;20201;-75
2022/05/03 04:36:10;;;;;;;33.87;25.83;;;6.70;99.90;;;;;;5134684;27;20667;-75
2022/05/03 04:38:37;;;;;;;38.87;28.33;;;6.70;99.90;;;;;;5134409;27;20231;-75
2022/05/03 04:41:04;;;;;;;40.43;27.77;;;6.70;99.90;;;;;;5134595;27;20713;-75
2022/05/03 04:43:32;;;;;;;38.63;27.30;;;6.60;99.90;;;;;;5134503;27;20199;-75
2022/05/03 04:46:00;;;;;;;41.27;29.17;;;6.60;99.90;;;;;;5134448;27;20199;-75
2022/05/03 04:48:26;;;;;;;38.47;27.23;;;6.60;99.90;;;;;;5134622;27;20190;-75
2022/05/03 04:50:53;;;;;;;33.47;26.50;;;6.60;99.90;;;;;;5134545;27;20194;-77
2022/05/03 04:53:21;;;;;;;35.10;27.73;;;6.60;99.90;;;;;;5135141;27;20190;-77
2022/05/03 04:55:48;;;;;;;34.47;26.50;;;6.70;99.90;;;;;;5134723;27;20216;-77
2022/05/03 04:58:14;;;;;;;34.63;26.83;;;6.80;99.90;;;;;;5134315;27;20238;-75
2022/05/03 05:00:43;;;;;;;36.30;28.83;;;6.80;99.90;;;;;;5134339;27;20194;-85
2022/05/03 05:03:10;;;;;;;43.03;29.40;;;6.80;99.90;;;;;;5134260;27;20252;-77
2022/05/03 05:05:36;;;;;;;52.97;27.77;;;6.90;99.90;;;;;;5134334;27;20191;-77
2022/05/03 05:08:04;;;;;;;63.43;26.63;;;6.70;99.90;;;;;;5134158;27;20195;-77
2022/05/03 05:10:32;;;;;;;44.33;28.63;;;6.70;99.90;;;;;;5134114;27;20271;-78
2022/05/03 05:12:59;;;;;;;29.30;24.90;;;6.60;99.90;;;;;;5134078;27;20191;-77
2022/05/03 05:15:25;;;;;;;31.93;27.20;;;6.60;99.90;;;;;;5134201;27;20199;-80
2022/05/03 05:17:54;;;;;;;37.53;24.53;;;6.70;99.90;;;;;;5115534;27;20699;-78
2022/05/03 05:20:21;;;;;;;32.93;23.53;;;6.70;99.90;;;;;;5112277;28;20203;-79
2022/05/03 05:22:48;;;;;;;33.27;25.10;;;6.70;99.90;;;;;;5131839;27;20274;-79
2022/05/03 05:25:15;;;;;;;32.37;25.00;;;6.70;99.90;;;;;;5133858;27;20191;-77
2022/05/03 05:27:42;;;;;;;27.20;23.33;;;6.80;99.90;;;;;;5133692;27;20689;-83
2022/05/03 05:30:09;;;;;;;27.90;24.47;;;7.00;99.90;;;;;;5134163;27;20194;-78
2022/05/03 05:32:37;;;;;;;29.10;23.57;;;7.10;99.90;;;;;;5133909;27;20191;-77
2022/05/03 05:35:06;;;;;;;27.27;24.23;;;7.20;99.90;;;;;;5133702;27;20650;-77
2022/05/03 05:37:33;;;;;;;27.70;24.60;;;7.40;99.90;;;;;;5133635;27;20256;-78
2022/05/03 05:40:00;;;;;;;24.73;22.23;;;7.40;99.90;;;;;;5133824;27;20203;-75
2022/05/03 05:42:27;;;;;;;28.57;24.30;;;7.40;99.90;;;;;;5133827;27;20728;-77
2022/05/03 05:44:53;;;;;;;26.43;23.60;;;7.50;99.90;;;;;;5133957;28;20200;-77
2022/05/03 05:47:20;;;;;;;24.97;22.37;;;7.60;99.90;;;;;;5133331;28;20195;-80
2022/05/03 05:49:47;;;;;;;25.97;23.23;;;7.70;99.90;;;;;;5131805;28;20547;-81
2022/05/03 05:54:59;;;;;;;23.93;21.50;;;8.00;99.90;;;;;;5132331;28;20206;-78
2022/05/03 05:57:26;;;;;;;24.40;21.80;;;8.20;99.90;;;;;;5131298;28;20251;-79
2022/05/03 05:59:52;;;;;;;24.23;21.80;;;8.30;99.90;;;;;;5131402;28;20287;-80
2022/05/03 06:02:19;;;;;;;24.03;21.53;;;8.30;99.90;;;;;;5131251;28;20198;-79
2022/05/03 06:04:46;;;;;;;22.00;19.87;;;8.50;99.90;;;;;;5132956;28;20250;-80
2022/05/03 06:07:12;;;;;;;22.43;19.73;;;8.60;99.90;;;;;;5133304;28;20209;-80
2022/05/03 06:09:40;;;;;;;23.60;21.10;;;8.70;99.90;;;;;;5133765;28;20199;-79
2022/05/03 06:12:08;;;;;;;20.53;18.53;;;8.80;99.90;;;;;;5133543;28;20203;-80
2022/05/03 06:14:35;;;;;;;20.80;18.60;;;8.80;99.90;;;;;;5133471;28;20221;-80
2022/05/03 06:17:01;;;;;;;19.57;17.57;;;8.90;99.90;;;;;;5133373;28;20194;-82
2022/05/03 06:19:28;;;;;;;19.13;17.23;;;9.10;99.90;;;;;;5133449;28;20223;-84
2022/05/03 06:21:55;;;;;;;19.47;17.03;;;9.30;99.90;;;;;;5133526;28;20199;-83
2022/05/03 06:24:21;;;;;;;18.57;16.63;;;9.50;99.90;;;;;;5133632;28;20199;-79
2022/05/03 06:26:49;;;;;;;19.03;16.97;;;9.60;99.90;;;;;;5133222;28;20240;-80
2022/05/03 06:29:16;;;;;;;20.03;18.03;;;9.80;99.90;;;;;;5133175;28;20198;-79
2022/05/03 06:31:43;;;;;;;21.07;18.30;;;10.00;99.90;;;;;;5132545;27;20199;-75
2022/05/03 06:34:10;;;;;;;17.83;16.13;;;10.10;99.90;;;;;;5134700;27;20218;-78
2022/05/03 06:36:37;;;;;;;18.30;15.80;;;10.20;99.90;;;;;;5134560;27;20199;-77
2022/05/03 06:39:04;;;;;;;20.83;16.60;;;10.40;99.90;;;;;;5134327;27;20243;-78
2022/05/03 06:41:31;;;;;;;19.07;16.97;;;10.60;99.90;;;;;;5134652;27;20595;-78
2022/05/03 06:44:00;;;;;;;19.10;16.90;;;10.80;99.90;;;;;;5134620;27;20195;-79
2022/05/03 06:46:26;;;;;;;16.53;14.73;;;10.90;99.90;;;;;;5137006;27;20191;-80
2022/05/03 06:48:53;;;;;;;16.07;14.30;;;11.10;99.90;;;;;;5136777;27;20199;-80
2022/05/03 06:51:21;;;;;;;15.27;13.90;;;11.30;99.90;;;;;;5136923;27;20198;-80
2022/05/03 06:53:48;;;;;;;16.10;13.53;;;11.50;99.90;;;;;;5136901;27;20195;-80
2022/05/03 06:56:15;;;;;;;15.93;13.67;;;11.70;99.90;;;;;;5136799;27;20298;-81
2022/05/03 06:58:42;;;;;;;16.23;14.53;;;11.90;99.90;;;;;;5136589;27;20311;-80
2022/05/03 07:01:11;;;;;;;14.87;13.37;;;12.10;99.90;;;;;;5136459;27;20194;-80
2022/05/03 07:03:39;;;;;;;19.77;14.70;;;12.30;99.90;;;;;;5136441;27;20190;-80
2022/05/03 07:06:06;;;;;;;14.60;13.20;;;12.50;99.90;;;;;;5136428;27;20221;-79
2022/05/03 07:08:33;;;;;;;15.27;13.40;;;12.70;99.90;;;;;;5136446;27;20210;-80
2022/05/03 07:11:00;;;;;;;14.57;12.40;;;12.80;99.90;;;;;;5136309;27;20247;-80
2022/05/03 07:13:28;;;;;;;12.90;11.50;;;12.90;99.90;;;;;;5136374;27;20239;-80
2022/05/03 07:15:56;;;;;;;12.90;11.47;;;13.10;99.90;;;;;;5136162;27;20195;-79
2022/05/03 07:23:53;;;;;;;12.03;10.90;;;13.70;99.90;;;;;;5136269;27;20202;-79
2022/05/03 07:26:20;;;;;;;10.63;9.73;;;14.00;99.90;;;;;;5135932;27;20244;-79
2022/05/03 07:28:48;;;;;;;10.87;9.87;;;14.30;99.90;;;;;;5135872;27;20718;-80
2022/05/03 07:31:15;;;;;;;11.80;10.63;;;14.40;99.90;;;;;;5135992;27;20571;-79
2022/05/03 07:33:43;;;;;;;9.67;8.73;;;14.50;99.90;;;;;;5135895;27;20198;-80
2022/05/03 07:36:11;;;;;;;9.80;8.87;;;14.80;99.90;;;;;;5135895;27;20203;-80
2022/05/03 07:38:37;;;;;;;9.90;9.00;;;15.20;99.90;;;;;;5135408;27;20227;-80
2022/05/03 07:41:05;;;;;;;9.50;8.70;;;15.20;99.90;;;;;;5135262;27;20208;-80
2022/05/03 07:43:32;;;;;;;9.98;8.40;;;15.40;99.90;;;;;;5134896;27;20198;-79
2022/05/03 07:45:58;;;;;;;8.75;7.95;;;15.70;99.90;;;;;;5135581;27;20219;-79
2022/05/03 07:48:25;;;;;;;10.82;8.80;;;16.10;99.90;;;;;;5135530;27;20191;-80
2022/05/03 07:50:53;;;;;;;10.07;8.80;;;16.30;99.90;;;;;;5135378;27;20267;-79
2022/05/03 07:53:20;;;;;;;10.38;9.38;;;16.60;99.90;;;;;;5135292;27;20252;-80
2022/05/03 07:55:47;;;;;;;9.10;8.30;;;16.90;99.90;;;;;;5135251;27;20678;-79
2022/05/03 07:58:15;;;;;;;10.05;9.13;;;17.00;99.90;;;;;;5135297;27;20256;-79
2022/05/03 08:00:41;;;;;;;10.77;9.70;;;17.30;99.90;;;;;;5135372;27;20239;-79
2022/05/03 08:03:08;;;;;;;10.73;9.77;;;17.40;99.90;;;;;;5135227;27;20195;-79
2022/05/03 08:05:35;;;;;;;9.68;8.75;;;17.50;99.90;;;;;;5135170;27;20195;-79
2022/05/03 08:08:03;;;;;;;10.13;9.20;;;17.60;99.90;;;;;;5135051;27;20418;-79
2022/05/03 08:10:30;;;;;;;10.48;9.57;;;17.80;99.90;;;;;;5135102;27;20256;-79
2022/05/03 08:12:56;;;;;;;9.70;8.73;;;17.90;99.90;;;;;;5135116;27;20199;-79
2022/05/03 08:15:23;;;;;;;9.55;8.75;;;18.00;99.90;;;;;;5134888;27;20255;-79
2022/05/03 08:17:50;;;;;;;9.65;8.73;;;18.10;99.90;;;;;;5134907;27;20199;-79
2022/05/03 08:20:18;;;;;;;9.25;8.45;;;18.30;99.90;;;;;;5134708;27;20222;-79
2022/05/03 08:22:45;;;;;;;9.15;8.38;;;18.40;99.90;;;;;;5134648;27;20555;-79
2022/05/03 08:25:13;;;;;;;9.68;8.88;;;18.50;99.90;;;;;;5134872;27;20580;-79
2022/05/03 08:27:41;;;;;;;10.10;9.10;;;18.70;99.90;;;;;;5134837;27;20195;-79
2022/05/03 08:30:08;;;;;;;9.23;8.10;;;18.80;99.90;;;;;;5134859;27;20231;-79
2022/05/03 08:32:35;;;;;;;9.65;8.75;;;18.90;99.90;;;;;;5134776;27;20199;-79
2022/05/03 08:35:02;;;;;;;10.20;9.40;;;18.90;99.90;;;;;;5134646;27;20203;-79
2022/05/03 08:42:58;;;;;;;9.65;8.75;;;19.20;99.90;;;;;;5134642;27;20562;-80
2022/05/03 08:45:25;;;;;;;9.65;8.70;;;19.40;99.90;;;;;;5134452;27;20207;-79
2022/05/03 08:47:52;;;;;;;9.38;8.48;;;19.60;99.90;;;;;;5134397;27;20195;-80
2022/05/03 08:50:20;;;;;;;10.57;8.45;;;19.80;99.90;;;;;;5134574;27;20203;-80
2022/05/03 08:52:49;;;;;;;8.77;7.97;;;19.90;99.90;;;;;;5134613;27;20195;-80
2022/05/03 08:55:18;;;;;;;9.38;8.52;;;20.00;99.90;;;;;;5133400;27;20231;-80
2022/05/03 08:57:45;;;;;;;9.00;8.10;;;20.20;99.90;;;;;;5134449;27;20199;-79
2022/05/03 09:00:14;;;;;;;8.40;7.70;;;20.40;99.90;;;;;;5134183;27;20271;-79
2022/05/03 09:02:44;;;;;;;8.30;7.60;;;20.40;99.90;;;;;;5134468;27;20208;-77
2022/05/03 09:05:11;;;;;;;8.85;7.95;;;20.40;99.90;;;;;;5134324;27;20654;-80
2022/05/03 09:07:39;;;;;;;7.95;7.25;;;20.70;99.90;;;;;;5134459;27;20623;-78
2022/05/03 09:10:18;;;;;;;8.75;8.00;;;21.00;99.90;;;;;;5134417;27;20206;-80
2022/05/03 09:12:45;;;;;;;8.18;7.40;;;21.20;99.90;;;;;;5134271;27;20199;-80
2022/05/03 09:15:13;;;;;;;7.95;6.90;;;21.20;99.90;;;;;;5134215;27;20252;-80
2022/05/03 09:17:42;;;;;;;10.65;8.70;;;21.60;98.10;;;;;;5134217;27;20191;-79
2022/05/03 09:26:11;;;;;;;6.25;5.65;;;22.30;91.10;;;;;;5133914;27;20673;-79
2022/05/03 09:28:44;;;;;;;6.28;5.68;;;22.60;80.40;;;;;;5133880;27;20205;-80
2022/05/03 09:31:11;;;;;;;8.20;6.35;;;22.60;78.70;;;;;;5133915;27;20195;-79
2022/05/03 09:33:38;;;;;;;6.95;6.20;;;22.50;77.80;;;;;;5133688;27;20199;-79
2022/05/03 09:36:08;;;;;;;6.70;6.18;;;22.70;78.40;;;;;;5133689;27;20657;-80
2022/05/03 09:38:44;;;;;;;6.18;5.68;;;22.40;74.30;;;;;;5133443;27;20230;-79
2022/05/03 09:41:16;;;;;;;6.35;5.78;;;22.40;73.20;;;;;;5133775;27;20194;-79
2022/05/03 09:44:01;;;;;;;6.70;6.10;;;22.80;75.60;;;;;;5133530;27;20623;-78
2022/05/03 09:46:28;;;;;;;7.70;6.95;;;23.00;73.80;;;;;;5133796;28;20195;-80
2022/05/03 09:48:55;;;;;;;6.97;6.38;;;23.30;72.50;;;;;;5133745;28;20232;-80
2022/05/03 09:51:22;;;;;;;6.63;6.03;;;23.40;69.60;;;;;;5133818;28;20278;-80
2022/05/03 09:53:56;;;;;;;6.13;5.72;;;23.50;68.80;;;;;;5133563;28;20194;-80
2022/05/03 09:56:27;;;;;;;6.28;5.72;;;23.20;65.50;;;;;;5133411;28;20199;-79
2022/05/03 09:58:59;;;;;;;6.20;5.78;;;23.30;66.40;;;;;;5133754;28;20199;-79
2022/05/03 10:01:27;;;;;;;6.10;5.70;;;23.80;65.00;;;;;;5133723;28;20194;-81
2022/05/03 10:03:55;;;;;;;7.15;6.43;;;24.00;65.20;;;;;;5133645;28;20202;-80
2022/05/03 10:06:23;;;;;;;7.00;5.60;;;22.50;63.80;;;;;;5134049;27;20235;-79
2022/05/03 10:08:51;;;;;;;6.20;5.70;;;22.70;70.10;;;;;;5137449;27;20675;-79
2022/05/03 10:11:18;;;;;;;5.90;5.40;;;23.10;69.00;;;;;;5137881;27;20255;-80
2022/05/03 10:13:46;;;;;;;5.70;5.20;;;23.30;60.40;;;;;;5137590;27;20247;-80
2022/05/03 10:21:50;;;;;;;5.88;5.35;;;24.00;62.10;;;;;;5137435;27;20201;-79
2022/05/03 10:24:18;;;;;;;5.38;4.88;;;24.50;58.70;;;;;;5137397;27;20196;-79
2022/05/03 10:26:56;;;;;;;5.35;4.72;;;24.90;58.90;;;;;;5137216;27;20233;-79
2022/05/03 10:29:25;;;;;;;5.82;4.85;;;25.40;54.60;;;;;;5137348;27;20297;-79
2022/05/03 10:31:54;;;;;;;5.50;5.00;;;25.90;51.20;;;;;;5137032;27;20194;-79
2022/05/03 10:34:59;;;;;;;5.90;5.38;;;26.00;50.10;;;;;;5137339;27;20646;-78
2022/05/03 10:38:05;;;;;;;5.35;4.93;;;26.50;48.90;;;;;;5136998;27;20636;-78
2022/05/03 10:40:34;;;;;;;5.85;5.35;;;26.70;44.30;;;;;;5130108;27;20308;-79
2022/05/03 10:43:10;;;;;;;4.97;4.57;;;27.20;44.80;;;;;;5137155;27;20199;-79
2022/05/03 10:45:53;;;;;;;5.25;4.57;;;27.50;41.40;;;;;;5136874;27;20281;-78
2022/05/03 10:48:28;;;;;;;6.90;4.20;;;28.00;40.10;;;;;;5136689;27;20194;-79
2022/05/03 10:50:57;;;;;;;4.60;3.95;;;28.40;37.70;;;;;;5136882;27;20197;-78
2022/05/03 10:53:29;;;;;;;4.18;3.40;;;28.10;34.70;;;;;;5136828;27;20194;-80
2022/05/03 10:56:17;;;;;;;4.20;3.90;;;28.60;33.30;;;;;;5136686;27;20679;-79
2022/05/03 10:58:46;;;;;;;3.88;3.58;;;29.00;30.40;;;;;;5136739;27;20243;-80
2022/05/03 11:01:18;;;;;;;3.60;3.40;;;29.30;30.00;;;;;;5136559;27;20232;-79
2022/05/03 11:04:12;;;;;;;6.60;3.88;;;29.90;29.50;;;;;;5136687;27;20285;-79
2022/05/03 11:06:44;;;;;;;4.10;3.70;;;29.20;30.40;;;;;;5136657;27;20255;-79
2022/05/03 11:09:15;;;;;;;3.97;3.58;;;29.90;28.70;;;;;;5136523;27;20241;-79
2022/05/03 11:12:06;;;;;;;3.95;3.50;;;31.00;26.60;;;;;;5136805;27;20281;-79
2022/05/03 11:14:50;;;;;;;3.92;3.63;;;30.40;25.30;;;;;;5116658;27;20194;-79
2022/05/03 11:17:19;;;;;;;3.65;3.35;;;30.50;24.10;;;;;;5136296;27;20242;-79
2022/05/03 11:19:58;;;;;;;5.38;3.67;;;30.90;24.20;;;;;;5134849;27;20219;-80
2022/05/03 11:22:30;;;;;;;3.72;3.40;;;31.70;23.00;;;;;;5136362;27;20198;-80
2022/05/03 11:24:58;;;;;;;3.63;3.33;;;31.80;22.70;;;;;;5136267;27;20201;-79
2022/05/03 11:27:26;;;;;;;5.43;3.47;;;31.30;22.40;;;;;;5136101;27;20202;-80
2022/05/03 11:29:58;;;;;;;4.43;3.40;;;31.80;23.00;;;;;;5136124;27;20202;-80
2022/05/03 11:32:32;;;;;;;6.22;3.47;;;32.40;22.10;;;;;;5136134;27;20239;-80
2022/05/03 11:35:21;;;;;;;5.70;3.40;;;31.70;21.30;;;;;;5136194;27;20250;-78
2022/05/03 11:37:52;;;;;;;3.78;3.47;;;32.90;21.30;;;;;;5117296;27;20238;-80
2022/05/03 11:40:21;;;;;;;4.13;3.83;;;33.10;19.50;;;;;;5135810;27;20222;-80
2022/05/03 11:42:49;;;;;;;3.60;3.30;;;32.90;20.00;;;;;;5135725;27;20198;-78
2022/05/03 11:45:16;;;;;;;4.07;3.78;;;32.60;20.40;;;;;;5135902;27;20190;-78
2022/05/03 11:47:45;;;;;;;5.82;3.75;;;31.80;19.40;;;;;;5135947;27;20247;-80
2022/05/03 11:55:58;;;;;;;5.63;3.65;;;29.20;20.00;;;;;;5135781;27;20255;-80
2022/05/03 11:56:01;;;;;;;5.07;3.40;;;29.00;22.70;;;;;;5135655;27;20194;-80
2022/05/03 11:58:29;;;;;;;4.07;3.05;;;30.30;22.10;;;;;;5135607;27;20230;-79
2022/05/03 12:00:56;;;;;;;3.40;3.10;;;32.10;20.70;;;;;;5136093;27;20234;-79
2022/05/03 12:03:25;;;;;;;3.88;3.58;;;33.10;19.00;;;;;;5136427;27;20247;-78
2022/05/03 12:06:00;;;;;;;3.28;3.05;;;33.30;17.50;;;;;;5136375;27;20251;-79
2022/05/03 12:08:28;;;;;;;3.88;3.58;;;32.50;18.30;;;;;;5136086;27;20247;-79
2022/05/03 12:10:56;;;;;;;3.70;3.40;;;32.50;18.50;;;;;;5135509;27;20199;-78
2022/05/03 12:13:31;;;;;;;3.80;3.50;;;32.30;18.00;;;;;;5135422;27;20198;-79
2022/05/03 12:16:11;;;;;;;4.35;3.92;;;33.20;18.20;;;;;;5135115;27;20649;-78
2022/05/03 12:18:41;;;;;;;4.90;3.85;;;33.10;17.60;;;;;;5135274;27;20569;-79
2022/05/03 12:21:10;;;;;;;4.18;3.88;;;33.20;17.70;;;;;;5135249;27;20316;-80
2022/05/03 12:23:45;;;;;;;4.18;3.58;;;33.00;17.40;;;;;;5135311;27;20240;-78
2022/05/03 12:26:22;;;;;;;3.58;3.28;;;33.60;17.30;;;;;;5135047;27;20190;-77
2022/05/03 12:28:51;;;;;;;4.57;3.63;;;34.70;16.30;;;;;;5135124;27;20257;-78
2022/05/03 12:31:20;;;;;;;4.43;4.03;;;34.60;15.90;;;;;;5135081;27;20294;-78
2022/05/03 12:33:52;;;;;;;3.83;3.45;;;34.80;15.70;;;;;;5134962;27;20247;-80
2022/05/03 12:36:34;;;;;;;3.75;3.40;;;35.60;15.20;;;;;;5134886;27;20198;-79
2022/05/03 12:39:17;;;;;;;4.18;3.70;;;36.10;13.50;;;;;;5134680;27;20623;-78
2022/05/03 12:41:45;;;;;;;3.13;2.83;;;34.90;13.40;;;;;;5132234;27;20287;-79
2022/05/03 12:44:14;;;;;;;3.20;2.90;;;35.20;14.00;;;;;;5134769;27;20602;-78
2022/05/03 12:46:42;;;;;;;3.15;2.85;;;35.30;13.20;;;;;;5134638;27;20198;-78
2022/05/03 12:49:13;;;;;;;3.17;2.90;;;35.60;13.00;;;;;;5134631;27;20251;-78
2022/05/03 12:51:41;;;;;;;3.08;2.85;;;36.10;11.60;;;;;;5134516;27;20198;-80
2022/05/03 12:54:08;;;;;;;4.28;3.10;;;35.60;12.20;;;;;;5134905;27;20198;-79
2022/05/03 12:59:21;;;;;;;3.42;3.08;;;33.80;13.30;;;;;;5134659;27;20193;-79
2022/05/03 13:01:48;;;;;;;3.28;3.08;;;33.60;13.70;;;;;;5134376;27;20215;-79
2022/05/03 13:04:17;;;;;;;3.95;3.08;;;34.00;13.90;;;;;;5134637;27;20196;-79
2022/05/03 13:06:44;;;;;;;3.92;3.53;;;33.70;13.10;;;;;;5134483;27;20199;-81
2022/05/03 13:09:11;;;;;;;4.15;3.05;;;33.00;13.60;;;;;;5134365;27;20246;-79
2022/05/03 13:11:39;;;;;;;3.90;3.60;;;32.40;14.00;;;;;;5134608;27;20198;-78
2022/05/03 13:14:06;;;;;;;5.70;3.40;;;32.50;14.10;;;;;;5134239;27;20198;-80
2022/05/03 13:16:32;;;;;;;3.75;3.45;;;31.60;14.10;;;;;;5134487;27;20200;-79
2022/05/03 13:18:59;;;;;;;4.10;3.58;;;31.00;14.70;;;;;;5134305;27;20194;-79
2022/05/03 13:21:27;;;;;;;5.22;3.65;;;30.80;15.90;;;;;;5134231;27;20232;-79
2022/05/03 13:23:54;;;;;;;3.75;3.45;;;30.40;16.10;;;;;;5133962;27;20657;-80
2022/05/03 13:26:20;;;;;;;4.35;3.88;;;29.40;16.10;;;;;;5133996;27;20244;-79
2022/05/03 13:28:47;;;;;;;4.47;4.03;;;29.00;17.40;;;;;;5133951;27;20539;-79
2022/05/03 13:31:14;;;;;;;5.68;4.30;;;28.30;18.50;;;;;;5133970;27;20194;-80
2022/05/03 13:33:41;;;;;;;4.00;3.70;;;27.50;19.70;;;;;;5133973;27;20195;-80
2022/05/03 13:41:37;;;;;;;4.32;3.97;;;27.00;20.20;;;;;;5133223;27;20229;-79